Arthur, Indiana
Current Conditions -  °F | °C
As of 5:55 AM on Sunday 21 Dec 2014 (Local Time) from KHNB Reporting Station
Clear Clear  
Wind Chill: 14°   Ceiling: Unl
Heat Index: 21°   Visibility: 4mi
Dew Point: 18°   Wind: 6mph
Humidity: 86%   Direction: 60°ENE
Pressure: 30.29"   Gusts: NA
Location:  38.3488°N, 87.2217°W
Report Text: KHNB 211155Z AUTO 06005KT 4SM CLR M06/M08 A3029 RMK AO1 11040 21060 57003
Loading
Personal Weather Stations






























Interactive Weather Map New forecast layout! Learn more

10-Day Weather Forecast

Advertisements
Track Severe Weather on mobile